PATA/TAL METAR and TAF weather

Enter ICAO airport designator
Station Type Date Time Source
PATA METAR 2021/06/22 21:52 UTC NOAA

PATA 222152Z 13005KT 8SM SCT055 BKN100 23/12 A2975 RMK AO2 SLP077 TCU E CB ALQDS T02330122


Station Type Date Time Source
PATA Decoded METAR 2021/06/22 21:52 UTC NOAA

TANANA CALHOUN MEMORIAL AIRPORT , AK, United States (PATA) 65-10N 152-06W 67M
Jun 22, 2021 - 05:52 PM EDT / 2021.06.22 2152 UTC
Wind: from the SE (130 degrees) at 6 MPH (5 KT):0
Visibility: 8 mile(s):0
Sky conditions: mostly cloudy
Weather: Cumulonimbus clouds, towering cumulus clouds observed
Temperature: 73.9 F (23.3 C)
Dew Point: 54.0 F (12.2 C)
Relative Humidity: 49%
Pressure (altimeter): 29.75 in. Hg (1007 hPa)
ob: PATA 222152Z 13005KT 8SM SCT055 BKN100 23/12 A2975 RMK AO2 SLP077 TCU E CB ALQDS T02330122
cycle: 22

Station Type Date Time Source
PATA TAF 2021/06/22 18:42 UTC NOAA

TAF PATA 221739Z 2218/2318 VRB05KT P6SM SCT060 SCT120
FM222200 12006KT P6SM VCTS BKN060CB BKN120
FM230600 VRB03KT P6SM BKN100

Example: see airport list